Time;durP1;ratioP1;P1;durP2;ratioP2;P2;SDS_P1;SDS_P2;PMS_P1;PMS_P2;Temp;Humidity;BMP_temperature;BMP_pressure;BME280_temperature;BME280_humidity;BME280_pressure;Samples;Min_cycle;Max_cycle;Signal;HPM_P1;HPM_P2
2022/05/17 00:02:13;;;;;;;59.25;38.08;;;13.40;99.90;;;;;;5035777;28;20029;-72
2022/05/17 00:04:38;;;;;;;60.55;41.97;;;13.30;99.90;;;;;;5017471;28;20476;-72
2022/05/17 00:07:05;;;;;;;57.10;39.33;;;13.30;99.90;;;;;;5034308;28;20476;-71
2022/05/17 00:09:31;;;;;;;56.97;38.58;;;13.30;99.90;;;;;;5034289;28;20040;-72
2022/05/17 00:11:57;;;;;;;67.55;42.92;;;13.30;99.90;;;;;;5034406;28;20061;-72
2022/05/17 00:14:23;;;;;;;70.75;45.92;;;13.30;99.90;;;;;;5035513;28;20045;-72
2022/05/17 00:16:49;;;;;;;76.05;45.25;;;13.30;99.90;;;;;;5034217;28;20053;-72
2022/05/17 00:19:16;;;;;;;70.50;44.15;;;13.20;99.90;;;;;;5035409;28;20025;-71
2022/05/17 00:21:43;;;;;;;63.35;40.88;;;13.20;99.90;;;;;;5034197;28;20531;-71
2022/05/17 00:24:09;;;;;;;57.83;38.63;;;13.30;99.90;;;;;;5035378;28;20037;-72
2022/05/17 00:26:35;;;;;;;66.65;42.83;;;13.30;99.90;;;;;;5035353;28;20026;-71
2022/05/17 00:29:02;;;;;;;65.13;40.17;;;13.10;99.90;;;;;;5035273;28;20022;-71
2022/05/17 00:31:28;;;;;;;64.25;40.97;;;13.20;99.90;;;;;;5033772;28;20045;-72
2022/05/17 00:33:54;;;;;;;66.80;41.80;;;13.20;99.90;;;;;;5033890;28;20484;-71
2022/05/17 00:36:20;;;;;;;60.80;40.70;;;13.20;99.90;;;;;;5017476;28;20029;-72
2022/05/17 00:38:48;;;;;;;63.00;41.30;;;;;;;;;;5035090;28;20552;-72
2022/05/17 00:41:14;;;;;;;72.78;43.90;;;12.80;99.90;;;;;;5035040;28;20476;-71
2022/05/17 00:46:32;;;;;;;74.47;45.50;;;13.10;99.90;;;;;;5033710;28;20395;-71
2022/05/17 00:48:58;;;;;;;69.80;44.10;;;13.10;99.90;;;;;;5034868;28;20025;-72
2022/05/17 00:51:27;;;;;;;71.35;42.72;;;13.10;99.90;;;;;;5033631;28;20033;-72
2022/05/17 00:54:01;;;;;;;61.30;39.78;;;13.00;99.90;;;;;;5033547;28;20021;-72
2022/05/17 00:56:27;;;;;;;69.97;42.80;;;13.00;99.90;;;;;;5034650;28;20075;-72
2022/05/17 00:58:58;;;;;;;71.57;43.58;;;12.90;99.90;;;;;;5034703;28;20026;-72
2022/05/17 01:01:26;;;;;;;67.32;41.60;;;12.90;99.90;;;;;;5017327;28;20489;-71
2022/05/17 01:03:57;;;;;;;61.35;39.65;;;12.80;99.90;;;;;;5033428;28;20116;-71
2022/05/17 01:06:27;;;;;;;96.60;49.50;;;12.90;99.90;;;;;;5034534;28;20388;-71
2022/05/17 01:08:53;;;;;;;86.35;48.00;;;12.90;99.90;;;;;;5016701;28;20025;-72
2022/05/17 01:11:19;;;;;;;78.22;47.97;;;12.90;99.90;;;;;;5034347;28;20167;-72
2022/05/17 01:16:30;;;;;;;93.65;51.17;;;12.90;99.90;;;;;;5033395;28;20149;-72
2022/05/17 01:18:56;;;;;;;91.35;49.70;;;12.90;99.90;;;;;;5034271;28;20523;-72
2022/05/17 01:21:22;;;;;;;81.05;46.38;;;12.90;99.90;;;;;;5034225;28;20174;-72
2022/05/17 01:23:48;;;;;;;71.22;43.85;;;12.90;99.90;;;;;;5034187;28;20392;-72
2022/05/17 01:26:18;;;;;;;88.50;49.35;;;12.90;99.90;;;;;;5032945;28;20033;-71
2022/05/17 01:28:43;;;;;;;81.70;47.08;;;12.90;99.90;;;;;;5032903;28;20032;-72
2022/05/17 01:31:09;;;;;;;77.43;47.45;;;12.80;99.90;;;;;;5033227;28;20029;-71
2022/05/17 01:33:38;;;;;;;71.30;43.15;;;12.80;99.90;;;;;;5035124;28;20042;-71
2022/05/17 01:36:06;;;;;;;83.63;47.65;;;12.80;99.90;;;;;;5032847;28;20412;-72
2022/05/17 01:38:33;;;;;;;73.25;45.33;;;12.80;99.90;;;;;;5033965;28;20045;-72
2022/05/17 01:40:59;;;;;;;72.30;44.20;;;12.80;99.90;;;;;;5032761;28;20071;-72
2022/05/17 01:43:25;;;;;;;74.95;44.38;;;12.70;99.90;;;;;;5032639;28;20025;-72
2022/05/17 01:45:51;;;;;;;89.88;48.45;;;12.70;99.90;;;;;;5033841;28;20060;-72
2022/05/17 01:48:16;;;;;;;69.32;42.65;;;12.70;99.90;;;;;;4999718;28;20021;-72
2022/05/17 01:50:42;;;;;;;81.80;44.83;;;12.70;99.90;;;;;;5032655;28;20448;-72
2022/05/17 01:53:08;;;;;;;68.22;43.63;;;12.70;99.90;;;;;;5032417;28;20026;-72
2022/05/17 01:55:33;;;;;;;77.22;44.88;;;12.70;99.90;;;;;;5032485;28;20100;-72
2022/05/17 01:57:59;;;;;;;70.50;43.53;;;12.60;99.90;;;;;;5032334;28;20484;-72
2022/05/17 02:00:25;;;;;;;71.15;40.30;;;12.60;99.90;;;;;;5032312;28;20026;-72
2022/05/17 02:02:52;;;;;;;73.25;42.63;;;12.60;99.90;;;;;;5033496;28;20029;-72
2022/05/17 02:05:19;;;;;;;70.13;42.00;;;12.60;99.90;;;;;;5033482;28;20033;-72
2022/05/17 02:07:45;;;;;;;67.20;39.75;;;12.50;99.90;;;;;;5015715;28;20025;-72
2022/05/17 02:10:11;;;;;;;69.50;42.45;;;12.40;99.90;;;;;;5032146;28;20488;-72
2022/05/17 02:12:37;;;;;;;73.90;42.05;;;12.40;99.90;;;;;;5032125;28;20030;-72
2022/05/17 02:15:05;;;;;;;65.35;40.05;;;12.40;99.90;;;;;;5032217;28;20025;-72
2022/05/17 02:17:31;;;;;;;67.43;39.42;;;12.40;99.90;;;;;;5032199;28;20021;-72
2022/05/17 02:19:58;;;;;;;77.28;42.38;;;12.40;99.90;;;;;;4999422;28;20032;-72
2022/05/17 02:22:24;;;;;;;68.43;40.90;;;12.40;99.90;;;;;;5032066;28;20083;-72
2022/05/17 02:24:49;;;;;;;62.22;37.58;;;12.30;99.90;;;;;;5031980;28;20488;-72
2022/05/17 02:27:15;;;;;;;60.85;38.17;;;12.30;99.90;;;;;;5015267;28;20480;-72
2022/05/17 02:29:40;;;;;;;73.18;42.17;;;12.30;99.90;;;;;;5033150;28;20034;-72
2022/05/17 02:32:06;;;;;;;63.25;37.47;;;12.30;99.90;;;;;;5031733;28;20527;-72
2022/05/17 02:34:32;;;;;;;65.05;38.50;;;12.20;99.90;;;;;;5032045;28;20060;-72
2022/05/17 02:36:58;;;;;;;57.45;37.42;;;;;;;;;;5031834;28;20538;-72
2022/05/17 02:39:24;;;;;;;65.07;37.50;;;12.90;99.90;;;;;;5031812;28;20021;-74
2022/05/17 02:41:49;;;;;;;56.92;36.05;;;12.30;99.90;;;;;;5031852;28;20052;-73
2022/05/17 02:44:15;;;;;;;54.83;36.45;;;;;;;;;;5032020;28;20416;-72
2022/05/17 02:46:42;;;;;;;59.10;35.67;;;;;;;;;;5033124;28;20037;-72
2022/05/17 02:49:07;;;;;;;57.53;36.08;;;12.30;99.90;;;;;;5031815;28;20033;-72
2022/05/17 02:51:34;;;;;;;57.53;35.80;;;12.20;99.90;;;;;;5033027;28;20029;-72
2022/05/17 02:54:00;;;;;;;56.00;35.92;;;12.20;99.90;;;;;;5032971;28;20392;-72
2022/05/17 02:56:25;;;;;;;57.35;35.47;;;12.10;99.90;;;;;;5032927;28;20028;-72
2022/05/17 02:58:51;;;;;;;58.72;37.25;;;12.20;99.90;;;;;;5015256;28;20060;-73
2022/05/17 03:01:17;;;;;;;63.47;37.80;;;12.20;99.90;;;;;;5031683;28;20026;-72
2022/05/17 03:03:43;;;;;;;69.28;39.53;;;12.20;99.90;;;;;;5032881;28;20017;-72
2022/05/17 03:06:09;;;;;;;72.80;42.20;;;12.10;99.90;;;;;;5031624;28;20033;-72
2022/05/17 03:08:35;;;;;;;71.00;42.42;;;12.20;99.90;;;;;;5032820;28;20476;-72
2022/05/17 03:11:02;;;;;;;77.03;44.03;;;12.20;99.90;;;;;;5032863;28;20438;-72
2022/05/17 03:13:27;;;;;;;72.85;43.45;;;12.20;99.90;;;;;;5014940;28;20032;-72
2022/05/17 03:15:53;;;;;;;75.60;43.63;;;12.20;99.90;;;;;;5031490;28;20384;-73
2022/05/17 03:18:19;;;;;;;73.43;42.88;;;12.20;99.90;;;;;;5031555;28;20425;-72
2022/05/17 03:20:47;;;;;;;82.28;46.70;;;12.20;99.90;;;;;;5031471;28;20028;-72
2022/05/17 03:23:13;;;;;;;82.38;45.67;;;12.20;99.90;;;;;;5015474;28;20475;-73
2022/05/17 03:25:38;;;;;;;74.47;42.45;;;12.30;99.90;;;;;;5032724;28;20024;-72
2022/05/17 03:28:04;;;;;;;71.25;41.15;;;12.30;99.90;;;;;;5014928;28;20026;-71
2022/05/17 03:30:30;;;;;;;71.88;40.22;;;12.30;99.90;;;;;;5031288;28;20055;-73
2022/05/17 03:32:55;;;;;;;73.15;42.45;;;12.30;99.90;;;;;;5031184;28;20050;-73
2022/05/17 03:35:21;;;;;;;66.97;41.22;;;12.20;99.90;;;;;;5032638;28;20057;-72
2022/05/17 03:37:46;;;;;;;71.38;42.75;;;12.20;99.90;;;;;;5031456;28;20030;-72
2022/05/17 03:40:12;;;;;;;75.32;42.40;;;12.20;99.90;;;;;;5034694;28;20032;-72
2022/05/17 03:42:38;;;;;;;74.15;44.67;;;12.10;99.90;;;;;;5036562;28;20034;-72
2022/05/17 03:45:05;;;;;;;72.63;43.05;;;12.20;99.90;;;;;;5036614;28;20029;-72
2022/05/17 03:47:31;;;;;;;66.80;40.47;;;12.20;99.90;;;;;;5035787;28;20021;-72
2022/05/17 03:49:57;;;;;;;72.03;41.72;;;12.10;99.90;;;;;;5037025;28;20036;-72
2022/05/17 03:52:27;;;;;;;93.55;50.40;;;12.10;99.90;;;;;;5036847;28;20017;-72
2022/05/17 03:54:56;;;;;;;86.07;47.70;;;12.20;99.90;;;;;;5037666;28;20056;-73
2022/05/17 03:57:22;;;;;;;99.20;53.70;;;12.20;99.90;;;;;;5037789;28;20079;-72
2022/05/17 03:59:47;;;;;;;100.85;52.13;;;12.30;99.90;;;;;;5038092;28;20021;-72
2022/05/17 04:02:13;;;;;;;82.35;47.35;;;12.20;99.90;;;;;;5039048;28;20097;-72
2022/05/17 04:04:39;;;;;;;86.35;47.78;;;12.30;99.90;;;;;;5037818;28;20472;-73
2022/05/17 04:07:04;;;;;;;79.28;44.67;;;12.30;99.90;;;;;;5038979;28;20055;-71
2022/05/17 04:09:30;;;;;;;81.50;45.10;;;12.30;99.90;;;;;;5039463;28;20033;-73
2022/05/17 04:11:56;;;;;;;78.57;43.92;;;12.30;99.90;;;;;;5037388;28;20548;-72
2022/05/17 04:14:22;;;;;;;75.47;41.55;;;12.30;99.90;;;;;;5035212;28;20026;-73
2022/05/17 04:16:48;;;;;;;77.13;43.75;;;12.40;99.90;;;;;;5036222;28;20037;-73
2022/05/17 04:19:15;;;;;;;101.65;51.92;;;12.50;99.90;;;;;;5035143;28;20483;-73
2022/05/17 04:21:42;;;;;;;108.05;52.70;;;12.50;99.90;;;;;;5036401;28;20045;-72
2022/05/17 04:24:08;;;;;;;102.50;52.25;;;12.50;99.90;;;;;;5035101;28;20043;-72
2022/05/17 04:26:33;;;;;;;109.90;55.90;;;12.70;99.90;;;;;;5035171;28;20028;-73
2022/05/17 04:28:59;;;;;;;113.82;57.30;;;12.90;99.90;;;;;;5035026;28;20404;-73
2022/05/17 04:31:25;;;;;;;105.15;57.22;;;;;;;;;;5035931;28;20045;-73
2022/05/17 04:33:50;;;;;;;96.00;56.10;;;14.40;99.90;;;;;;5035599;28;20392;-74
2022/05/17 04:36:16;;;;;;;56.92;39.10;;;14.40;99.90;;;;;;5034241;28;20021;-73
2022/05/17 04:38:42;;;;;;;50.40;33.13;;;;;;;;;;5017741;28;20108;-72
2022/05/17 04:41:07;;;;;;;33.80;26.42;;;15.60;99.90;;;;;;5035175;28;20420;-72
2022/05/17 04:43:33;;;;;;;31.63;24.90;;;15.90;99.90;;;;;;5035469;28;20480;-73
2022/05/17 04:45:58;;;;;;;30.98;24.85;;;16.10;99.90;;;;;;5033967;28;20021;-73
2022/05/17 04:48:24;;;;;;;30.50;22.35;;;16.40;99.90;;;;;;5033853;28;20029;-72
2022/05/17 04:50:51;;;;;;;29.25;22.00;;;16.70;99.90;;;;;;5035068;28;20026;-72
2022/05/17 04:53:17;;;;;;;24.05;21.20;;;17.10;99.90;;;;;;5034872;28;20036;-73
2022/05/17 04:55:42;;;;;;;28.02;22.63;;;17.40;99.90;;;;;;5017299;28;20028;-72
2022/05/17 04:58:08;;;;;;;25.77;21.10;;;17.40;99.90;;;;;;5033576;28;20480;-73
2022/05/17 05:00:34;;;;;;;30.73;23.27;;;17.20;99.90;;;;;;5033607;28;20025;-72
2022/05/17 05:03:00;;;;;;;31.48;23.70;;;16.80;99.90;;;;;;5033367;28;20026;-72
2022/05/17 05:05:25;;;;;;;29.88;24.08;;;16.70;99.90;;;;;;5016984;28;20025;-72
2022/05/17 05:07:52;;;;;;;35.47;25.55;;;16.40;99.90;;;;;;5034507;28;20053;-72
2022/05/17 05:10:17;;;;;;;37.05;27.02;;;16.10;99.90;;;;;;5034345;28;20067;-72
2022/05/17 05:12:43;;;;;;;36.83;28.30;;;16.00;99.90;;;;;;5033164;28;20068;-72
2022/05/17 05:15:10;;;;;;;36.13;27.60;;;15.80;99.90;;;;;;5034431;28;20026;-72
2022/05/17 05:17:37;;;;;;;40.97;28.60;;;15.80;99.90;;;;;;5034365;28;20079;-72
2022/05/17 05:20:04;;;;;;;40.28;29.25;;;15.80;99.90;;;;;;5034373;28;20454;-72
2022/05/17 05:22:31;;;;;;;40.70;28.75;;;15.90;99.90;;;;;;5034232;28;20028;-72
2022/05/17 05:24:57;;;;;;;35.65;27.40;;;15.90;99.90;;;;;;5034197;28;20377;-72
2022/05/17 05:27:23;;;;;;;39.00;28.33;;;16.00;99.90;;;;;;5032940;28;20025;-72
2022/05/17 05:29:48;;;;;;;37.90;27.63;;;16.00;99.90;;;;;;5032897;28;20454;-71
2022/05/17 05:32:13;;;;;;;37.25;26.35;;;16.00;99.90;;;;;;5032645;28;20458;-72
2022/05/17 05:34:39;;;;;;;36.67;27.30;;;16.20;99.90;;;;;;5034104;28;20029;-71
2022/05/17 05:37:05;;;;;;;37.08;25.75;;;16.20;99.90;;;;;;5033935;28;20056;-72
2022/05/17 05:39:31;;;;;;;37.97;25.38;;;16.40;99.90;;;;;;5032862;28;20361;-72
2022/05/17 05:41:56;;;;;;;27.75;23.08;;;16.90;99.90;;;;;;5033857;28;20024;-72
2022/05/17 05:44:22;;;;;;;30.75;20.95;;;17.70;99.90;;;;;;5032670;28;20025;-72
2022/05/17 05:46:48;;;;;;;25.63;18.15;;;18.50;99.90;;;;;;5033777;28;20021;-72
2022/05/17 05:49:13;;;;;;;25.48;18.58;;;19.30;99.90;;;;;;5032579;28;20043;-72
2022/05/17 05:51:40;;;;;;;27.88;18.45;;;20.10;99.90;;;;;;5033737;28;20029;-72
2022/05/17 05:54:06;;;;;;;23.88;17.27;;;20.90;99.90;;;;;;5032452;28;20022;-72
2022/05/17 05:56:32;;;;;;;31.83;18.15;;;21.20;99.90;;;;;;5032489;28;20506;-72
2022/05/17 05:58:57;;;;;;;23.30;16.58;;;21.30;99.90;;;;;;5033607;28;20017;-72
2022/05/17 06:01:23;;;;;;;24.40;15.50;;;22.10;99.90;;;;;;5020620;28;20024;-72
2022/05/17 06:03:48;;;;;;;29.67;15.48;;;22.60;99.90;;;;;;5045768;28;20033;-72
2022/05/17 06:06:16;;;;;;;20.23;15.02;;;23.10;99.90;;;;;;5052145;28;20029;-72
2022/05/17 06:08:41;;;;;;;21.42;15.88;;;22.70;99.90;;;;;;5052123;28;20387;-72
2022/05/17 06:11:07;;;;;;;26.33;15.55;;;22.20;99.90;;;;;;5053341;28;20029;-72
2022/05/17 06:13:33;;;;;;;21.42;15.15;;;22.00;99.90;;;;;;5052013;28;20035;-72
2022/05/17 06:15:59;;;;;;;26.92;15.35;;;21.80;99.90;;;;;;5053190;28;20026;-72
2022/05/17 06:18:24;;;;;;;24.70;17.05;;;21.80;99.90;;;;;;5051770;28;20029;-72
2022/05/17 06:20:52;;;;;;;26.20;17.20;;;21.80;99.90;;;;;;5052003;28;20021;-72
2022/05/17 06:23:18;;;;;;;23.98;16.73;;;21.50;99.90;;;;;;5052030;28;20419;-72
2022/05/17 06:25:44;;;;;;;18.80;16.45;;;21.70;99.90;;;;;;5035376;28;20032;-72
2022/05/17 06:28:10;;;;;;;29.15;17.90;;;21.40;99.90;;;;;;5051792;28;20091;-71
2022/05/17 06:30:37;;;;;;;28.83;16.55;;;21.00;99.90;;;;;;5051768;28;20025;-72
2022/05/17 06:33:02;;;;;;;24.38;17.58;;;20.60;99.90;;;;;;5052794;28;20040;-72
2022/05/17 06:35:28;;;;;;;32.72;19.55;;;20.50;99.90;;;;;;5051695;28;20082;-71
2022/05/17 06:37:54;;;;;;;33.80;19.50;;;20.30;99.90;;;;;;5051861;28;20100;-71
2022/05/17 06:40:20;;;;;;;26.45;18.58;;;20.50;99.90;;;;;;5052820;28;20060;-71
2022/05/17 06:42:46;;;;;;;27.95;18.08;;;20.80;99.90;;;;;;5051547;28;20047;-72
2022/05/17 06:45:13;;;;;;;25.65;18.13;;;20.60;99.90;;;;;;5052872;28;20116;-71
2022/05/17 06:47:40;;;;;;;23.75;17.45;;;20.80;99.90;;;;;;5052807;28;20032;-72
2022/05/17 06:50:07;;;;;;;27.17;17.20;;;21.60;99.90;;;;;;5052722;28;20044;-72
2022/05/17 06:52:32;;;;;;;24.08;18.60;;;22.10;99.90;;;;;;5052606;28;20036;-71
2022/05/17 06:54:58;;;;;;;29.25;18.92;;;21.70;99.90;;;;;;5051396;28;20484;-72
2022/05/17 06:57:23;;;;;;;26.50;17.45;;;21.30;99.90;;;;;;5034752;28;20078;-72
2022/05/17 06:59:50;;;;;;;27.45;15.68;;;21.50;99.90;;;;;;5051432;28;20052;-71
2022/05/17 07:02:15;;;;;;;29.60;17.48;;;21.40;99.90;;;;;;5051131;28;20025;-71
2022/05/17 07:04:41;;;;;;;32.85;15.50;;;21.50;99.90;;;;;;5052508;28;20035;-72
2022/05/17 07:07:08;;;;;;;25.20;16.67;;;21.80;99.90;;;;;;5052538;28;20494;-71
2022/05/17 07:09:36;;;;;;;30.05;16.67;;;22.50;99.90;;;;;;5051421;28;20033;-71
2022/05/17 07:14:49;;;;;;;22.15;14.60;;;22.00;99.90;;;;;;5035541;28;20030;-71
2022/05/17 07:17:17;;;;;;;22.33;13.82;;;21.90;99.90;;;;;;5034827;28;20166;-71
2022/05/17 07:19:44;;;;;;;26.02;13.52;;;21.50;99.90;;;;;;5034829;28;20039;-71
2022/05/17 07:22:10;;;;;;;17.88;11.75;;;22.20;99.90;;;;;;5035685;28;20021;-71
2022/05/17 07:24:36;;;;;;;20.77;11.10;;;22.60;99.90;;;;;;5035857;28;20462;-71
2022/05/17 07:27:03;;;;;;;22.30;12.88;;;22.60;99.90;;;;;;5034819;28;20057;-70
2022/05/17 07:29:29;;;;;;;17.70;11.30;;;22.70;99.90;;;;;;5036231;28;20055;-71
2022/05/17 07:31:54;;;;;;;19.55;11.98;;;22.90;99.90;;;;;;5035287;28;20502;-71
2022/05/17 07:34:21;;;;;;;19.00;11.48;;;22.30;99.90;;;;;;5036123;28;20025;-71
2022/05/17 07:36:47;;;;;;;18.13;10.63;;;23.10;99.90;;;;;;5035830;28;20529;-71
2022/05/17 07:39:13;;;;;;;15.13;9.32;;;24.10;99.90;;;;;;5035805;28;20105;-71
2022/05/17 07:41:40;;;;;;;16.67;9.88;;;24.40;99.90;;;;;;5036024;28;20026;-71
2022/05/17 07:44:05;;;;;;;16.63;9.68;;;25.10;99.90;;;;;;5033735;28;20431;-71
2022/05/17 07:46:31;;;;;;;16.80;9.90;;;25.10;99.90;;;;;;5035934;28;20083;-70
2022/05/17 07:48:57;;;;;;;13.60;9.27;;;24.50;99.90;;;;;;5035560;28;20079;-71
2022/05/17 07:51:23;;;;;;;14.10;9.70;;;24.10;99.90;;;;;;5018143;28;20051;-71
2022/05/17 07:53:48;;;;;;;17.75;9.10;;;23.30;99.90;;;;;;5034295;28;20103;-70
2022/05/17 07:56:14;;;;;;;16.40;8.75;;;22.90;99.90;;;;;;5034495;28;20029;-71
2022/05/17 07:58:40;;;;;;;14.73;8.93;;;22.30;99.90;;;;;;5034349;28;20079;-71
2022/05/17 08:01:06;;;;;;;16.73;9.60;;;22.50;99.90;;;;;;5034234;28;20027;-71
2022/05/17 08:03:31;;;;;;;18.42;8.93;;;22.40;99.90;;;;;;5035108;28;20102;-71
2022/05/17 08:05:57;;;;;;;16.35;10.20;;;22.90;99.90;;;;;;5034439;28;20060;-72
2022/05/17 08:08:23;;;;;;;17.25;10.50;;;22.70;99.90;;;;;;5014229;28;20448;-71
2022/05/17 08:10:49;;;;;;;15.93;9.82;;;22.90;99.90;;;;;;5015884;28;20040;-71
2022/05/17 08:13:16;;;;;;;13.05;8.23;;;22.90;99.90;;;;;;4998359;28;20400;-71
2022/05/17 08:15:45;;;;;;;12.48;6.80;;;22.90;99.90;;;;;;5014422;28;20022;-71
2022/05/17 08:18:11;;;;;;;16.55;7.20;;;22.80;99.90;;;;;;5033843;28;20553;-73
2022/05/17 08:20:37;;;;;;;10.77;6.18;;;22.90;99.90;;;;;;5034291;28;20107;-72
2022/05/17 08:23:05;;;;;;;14.45;6.85;;;22.90;99.90;;;;;;5033875;28;20384;-72
2022/05/17 08:28:18;;;;;;;20.25;7.78;;;23.10;99.90;;;;;;5033813;28;20053;-72
2022/05/17 08:30:44;;;;;;;12.57;7.80;;;23.10;99.90;;;;;;5033634;28;20041;-72
2022/05/17 08:33:17;;;;;;;14.05;7.30;;;22.50;99.90;;;;;;5033507;28;20041;-72
2022/05/17 08:35:52;;;;;;;12.52;7.40;;;22.40;99.90;;;;;;5034894;28;20021;-71
2022/05/17 08:38:25;;;;;;;16.98;7.53;;;22.50;99.90;;;;;;5035056;28;20021;-72
2022/05/17 08:40:57;;;;;;;;;;;23.00;99.90;;;;;;5035232;28;20027;-71
2022/05/17 08:44:00;;;;;;;10.52;6.38;;;23.10;99.90;;;;;;5033722;28;20311;-72
2022/05/17 08:46:58;;;;;;;16.63;8.05;;;23.10;99.90;;;;;;5034654;28;20061;-72
2022/05/17 08:49:29;;;;;;;15.60;8.00;;;22.90;99.90;;;;;;5030447;28;20033;-71
2022/05/17 08:51:58;;;;;;;13.95;7.57;;;23.20;99.90;;;;;;5024243;28;20121;-71
2022/05/17 08:54:28;;;;;;;13.27;7.43;;;23.00;99.90;;;;;;5032627;28;20585;-71
2022/05/17 08:57:12;;;;;;;14.55;6.97;;;22.90;99.90;;;;;;5034368;28;20026;-71
2022/05/17 08:59:37;;;;;;;16.75;7.22;;;22.70;99.90;;;;;;5034201;28;20112;-71
2022/05/17 09:02:16;;;;;;;13.77;6.75;;;22.70;99.90;;;;;;5032826;28;20109;-72
2022/05/17 09:05:14;;;;;;;14.48;5.35;;;22.30;99.90;;;;;;5034451;28;20443;-72
2022/05/17 09:08:04;;;;;;;11.57;6.15;;;22.00;99.90;;;;;;5033926;28;20080;-72
2022/05/17 09:10:38;;;;;;;16.52;6.85;;;22.10;99.90;;;;;;5033019;28;20026;-72
2022/05/17 09:13:27;;;;;;;14.93;6.45;;;22.70;99.90;;;;;;5033881;28;20361;-72
2022/05/17 09:15:55;;;;;;;11.70;6.35;;;22.90;99.90;;;;;;5032243;28;20478;-72
2022/05/17 09:18:22;;;;;;;14.38;6.28;;;23.20;99.90;;;;;;5032890;28;20025;-72
2022/05/17 09:20:48;;;;;;;12.80;6.75;;;23.30;99.90;;;;;;5031524;28;20027;-72
2022/05/17 09:23:14;;;;;;;14.27;6.20;;;22.90;99.90;;;;;;5032197;28;20112;-72
2022/05/17 09:25:53;;;;;;;12.85;7.05;;;23.40;99.90;;;;;;5032825;28;20475;-71
2022/05/17 09:28:21;;;;;;;14.02;6.70;;;23.30;99.90;;;;;;5032435;28;20030;-71
2022/05/17 09:30:47;;;;;;;15.05;6.72;;;22.90;99.90;;;;;;5033350;28;20468;-71
2022/05/17 09:33:19;;;;;;;13.68;6.40;;;23.60;99.90;;;;;;5032007;28;20496;-71
2022/05/17 09:36:01;;;;;;;15.32;6.40;;;23.90;99.90;;;;;;5032600;28;20495;-72
2022/05/17 09:38:31;;;;;;;11.27;5.97;;;24.60;99.90;;;;;;5032687;28;20056;-72
2022/05/17 09:40:58;;;;;;;11.13;5.82;;;24.40;99.90;;;;;;5033864;28;20064;-72
2022/05/17 09:43:35;;;;;;;12.00;6.00;;;24.10;99.90;;;;;;5033353;28;20037;-72
2022/05/17 09:46:09;;;;;;;13.02;5.80;;;24.10;99.90;;;;;;5032603;28;20083;-72
2022/05/17 09:54:38;;;;;;;13.32;6.65;;;23.80;99.90;;;;;;5025416;28;20042;-71
2022/05/17 09:57:21;;;;;;;13.50;6.22;;;24.10;99.90;;;;;;5012304;28;20137;-71
2022/05/17 09:59:49;;;;;;;11.23;6.10;;;23.70;99.90;;;;;;5029410;28;20096;-70
2022/05/17 10:02:38;;;;;;;12.05;5.68;;;23.70;99.90;;;;;;5032730;28;20029;-73
2022/05/17 10:05:25;;;;;;;12.27;6.28;;;23.80;99.90;;;;;;5031733;28;20068;-72
2022/05/17 10:07:54;;;;;;;17.67;6.47;;;24.20;99.90;;;;;;5031165;28;20586;-71
2022/05/17 10:10:27;;;;;;;13.13;6.53;;;24.20;99.90;;;;;;5012400;28;20140;-71
2022/05/17 10:12:59;;;;;;;12.85;6.43;;;23.90;99.90;;;;;;5018857;28;20029;-72
2022/05/17 10:15:26;;;;;;;11.82;6.97;;;23.80;99.90;;;;;;5033182;28;20026;-71
2022/05/17 10:18:00;;;;;;;17.42;8.23;;;24.10;99.90;;;;;;5031627;28;20021;-72
2022/05/17 10:20:34;;;;;;;17.00;8.02;;;23.80;99.90;;;;;;5033080;28;20120;-71
2022/05/17 10:23:27;;;;;;;12.43;5.68;;;23.40;99.90;;;;;;5032861;28;20036;-72
2022/05/17 10:26:02;;;;;;;10.20;4.73;;;23.00;99.90;;;;;;5033066;28;20476;-71
2022/05/17 10:28:52;;;;;;;15.25;4.65;;;22.40;99.90;;;;;;5031348;28;20276;-71
2022/05/17 10:31:30;;;;;;;10.77;3.92;;;22.60;99.90;;;;;;5031594;28;20025;-70
2022/05/17 10:34:08;;;;;;;12.55;4.40;;;22.40;99.90;;;;;;5030785;28;20044;-71
2022/05/17 10:36:44;;;;;;;11.05;4.72;;;22.40;99.90;;;;;;5031569;28;20366;-71
2022/05/17 10:39:32;;;;;;;9.55;4.25;;;22.50;99.90;;;;;;5031527;28;20025;-70
2022/05/17 10:41:59;;;;;;;9.20;5.00;;;22.50;99.90;;;;;;5032532;28;20021;-71
2022/05/17 10:44:44;;;;;;;10.55;4.35;;;23.10;99.90;;;;;;5025196;28;20104;-71
2022/05/17 10:47:15;;;;;;;12.48;5.05;;;23.90;99.90;;;;;;5035019;28;20423;-71
2022/05/17 10:50:11;;;;;;;11.80;4.95;;;24.10;99.90;;;;;;5038340;28;20009;-71
2022/05/17 10:56:13;;;;;;;7.75;3.55;;;24.40;99.90;;;;;;5075775;27;20122;-72
2022/05/17 10:59:08;;;;;;;11.27;4.75;;;24.20;99.90;;;;;;5065210;28;20060;-72
2022/05/17 11:02:14;;;;;;;9.88;4.63;;;23.50;99.90;;;;;;5068496;28;20021;-72
2022/05/17 11:05:02;;;;;;;11.80;5.03;;;23.20;99.90;;;;;;5076376;28;20028;-71
2022/05/17 11:07:53;;;;;;;10.93;4.85;;;23.30;99.90;;;;;;5060855;28;20020;-71
2022/05/17 11:10:33;;;;;;;9.43;4.18;;;23.40;99.90;;;;;;5081176;28;20016;-71
2022/05/17 11:13:26;;;;;;;9.88;5.25;;;23.50;99.90;;;;;;5044465;28;20067;-73
2022/05/17 11:16:00;;;;;;;9.90;4.70;;;23.10;99.90;;;;;;5074913;28;20029;-71
2022/05/17 11:18:48;;;;;;;11.02;4.30;;;23.00;99.90;;;;;;5054461;28;20533;-71
2022/05/17 11:21:25;;;;;;;14.35;4.88;;;23.00;99.90;;;;;;5051389;28;20086;-72
2022/05/17 11:23:55;;;;;;;9.32;4.78;;;23.00;99.90;;;;;;5052664;28;20495;-72
2022/05/17 11:29:35;;;;;;;8.73;4.55;;;23.00;99.90;;;;;;5063718;28;20420;-73
2022/05/17 11:32:20;;;;;;;7.72;4.25;;;23.10;99.90;;;;;;5032661;28;20040;-72
2022/05/17 11:34:46;;;;;;;12.30;4.75;;;22.90;99.90;;;;;;5039978;28;20025;-72
2022/05/17 11:37:38;;;;;;;12.38;5.43;;;23.00;99.90;;;;;;5019334;28;20400;-72
2022/05/17 11:40:07;;;;;;;12.55;5.55;;;22.90;99.90;;;;;;5046302;28;20044;-72
2022/05/17 11:42:36;;;;;;;11.68;6.38;;;22.90;99.90;;;;;;5047185;28;20029;-73
2022/05/17 11:45:21;;;;;;;11.40;5.43;;;22.70;99.90;;;;;;5019058;28;20153;-73
2022/05/17 11:48:02;;;;;;;11.43;5.40;;;22.90;99.90;;;;;;5059583;28;20025;-73
2022/05/17 11:53:29;;;;;;;9.35;4.95;;;22.60;99.90;;;;;;5193654;27;20354;-72
2022/05/17 11:56:21;;;;;;;12.85;5.20;;;22.50;99.90;;;;;;5167818;27;20109;-72
2022/05/17 11:58:49;;;;;;;11.25;4.78;;;22.40;99.90;;;;;;5172481;27;20033;-72
2022/05/17 12:07:27;;;;;;;13.30;6.10;;;22.80;99.90;;;;;;5102385;27;20318;-72
2022/05/17 12:09:57;;;;;;;15.85;5.40;;;22.30;99.90;;;;;;5121248;28;20124;-72
2022/05/17 12:13:02;;;;;;;16.25;4.95;;;22.30;99.90;;;;;;5107047;28;20028;-72
2022/05/17 12:15:35;;;;;;;10.27;5.18;;;22.60;99.90;;;;;;5106347;28;20041;-72
2022/05/17 12:18:08;;;;;;;;;;;22.80;99.90;;;;;;5126875;28;20481;-72
2022/05/17 12:20:48;;;;;;;13.20;5.77;;;23.00;99.90;;;;;;5107273;28;19969;-72
2022/05/17 12:23:35;;;;;;;13.13;5.95;;;22.80;99.90;;;;;;5118159;28;20023;-71
2022/05/17 12:26:23;;;;;;;12.73;5.38;;;22.40;99.90;;;;;;5098905;28;20038;-72
2022/05/17 12:28:53;;;;;;;12.40;5.22;;;22.40;99.90;;;;;;5116114;28;20046;-72
2022/05/17 12:31:25;;;;;;;14.60;4.95;;;22.60;99.90;;;;;;5114479;28;20035;-72
2022/05/17 12:33:52;;;;;;;12.88;5.07;;;22.70;99.90;;;;;;5125066;28;20055;-72
2022/05/17 12:36:27;;;;;;;10.63;5.13;;;22.70;99.90;;;;;;5114816;28;20020;-72
2022/05/17 12:44:26;;;;;;;8.90;3.45;;;22.90;99.90;;;;;;5086523;28;20372;-72
2022/05/17 12:46:56;;;;;;;10.10;4.10;;;23.00;99.90;;;;;;5087478;28;20532;-72
2022/05/17 12:49:29;;;;;;;11.07;3.65;;;23.00;99.90;;;;;;5080126;28;20025;-72
2022/05/17 12:51:59;;;;;;;7.43;3.75;;;22.70;99.90;;;;;;5065770;28;20103;-72
2022/05/17 12:54:29;;;;;;;11.15;3.83;;;22.60;99.90;;;;;;5071246;28;20130;-71
2022/05/17 12:56:56;;;;;;;7.53;3.47;;;22.60;99.90;;;;;;5073484;28;20051;-72
2022/05/17 12:59:26;;;;;;;8.63;4.25;;;22.50;99.90;;;;;;5067179;28;20033;-71
2022/05/17 13:01:56;;;;;;;10.82;3.80;;;22.10;99.90;;;;;;5069968;28;20430;-71
2022/05/17 13:04:29;;;;;;;8.30;2.85;;;22.00;99.90;;;;;;5069588;28;20021;-71
2022/05/17 13:07:07;;;;;;;11.00;3.73;;;22.10;99.90;;;;;;5051784;28;20426;-71
2022/05/17 13:09:32;;;;;;;14.50;5.50;;;21.70;99.90;;;;;;5069166;28;20028;-72
2022/05/17 13:12:13;;;;;;;10.82;3.88;;;21.70;99.90;;;;;;5069846;28;20483;-71
2022/05/17 13:14:39;;;;;;;10.98;3.90;;;21.90;99.90;;;;;;5068696;28;20028;-71
2022/05/17 13:17:13;;;;;;;10.93;4.30;;;22.10;99.90;;;;;;5069707;28;20104;-71
2022/05/17 13:19:41;;;;;;;13.48;4.60;;;22.30;99.90;;;;;;5069788;28;20044;-72
2022/05/17 13:22:07;;;;;;;11.93;4.30;;;22.10;99.90;;;;;;5069561;28;20060;-72
2022/05/17 13:24:43;;;;;;;10.77;4.38;;;22.10;99.90;;;;;;5068260;28;20020;-72